Terminal Aerodrome Forecast
Issued by NWS

Home | Current Version | Previous Version | Text Only | Print | Product List | Glossary Off
Versions: 1 2 3 4 5 6 7 8 9 10 11 12 13 14 15 16 17 18 19

000
FTUS43 KMPX 242330
TAFAXN
TAF
KAXN 242330Z 2500/2524 20008KT P6SM OVC080
     FM250300 30008KT P6SM VCSH OVC035
     FM250600 31011KT 5SM BR SCT004 OVC008
     FM251400 35011KT P6SM OVC008
     FM251600 36011KT P6SM OVC012
     FM251800 36011KT P6SM OVC025
     FM252300 01014G22KT 4SM -SHRA BR OVC008=

USA.gov is the U.S. government's official web portal to all federal, state and local government web resources and services.